Startpagina
METAR-TAF:

METAR-TAF

Vliegvelden :

Pucallpa, Peru

breedte: 08-25S, lengte: 074-36W, hoogte: 148 m

Actueel weer

Dit bericht is 29 minuten geleden gemaakt, om 01:00 UTC
Wind 4 kt uit het noordoosten
Temperatuur 30°C
Vochtigheid 75%
Druk 1007 hPa
Zicht 10 km of meer
Gebroken wolken op 1500 ft

METAR: SPCL 290100Z 04004KT 9999 BKN015 30/25 Q1007 RMK PP000

Tijdstip: 20:29 (01:29 UTC)

Verwachting

Dit bericht is 2 uur en het 29 minuten geleden gemaakt, om 23:00 UTC
Verwachting geldig van 29 om 00 UTC tot 29 om 24 UTC
Wind 5 kt uit het noorden
Zicht 10 km of meer
Verspreide wolken op 2000 ft
Gebroken wolken op 10000 ft
Tijdelijke
van 29 om 00 UTC tot 29 om 04 UTC
Zicht: 7000 m
Gebroken wolken op 2000 ft
Gebroken wolken op 10000 ft
motregen, regen
Tijdelijke
van 29 om 09 UTC tot 29 om 12 UTC
Zicht: 8000 m
Gebroken wolken op 1000 ft

TAF: SPCL 282300Z 2900/2924 35005KT 9999 SCT020 BKN100 TX34/2920Z TN24/2911Z TEMPO 2900/2904 7000 DZRA BKN020 BKN100 TEMPO 2909/2912 8000 BKN010

Waarnemingen en weersverwachtingen van meer dan 4000 vliegvelden (METAR en TAF).

De beschikbare stations zijn de gele en rode punten op de kaart.

Ga met uw muis naar het station om de naam te zien.

Klik dan om waarnemingen en weersverwachtingen te zien.

kaart wijzigen: klik op de groene knoppen met een zwart kruis om in te zoomen, op de groene knop met een streepje om uit te zoomen of op de groene pijlen voor aangrenzende kaarten.


METAR-TAF: